KOCF/OCF METAR and TAF weather

Enter ICAO airport designator
Station Type Date Time Source
KOCF METAR 2019/08/18 07:51 UTC NOAA

KOCF 180751Z AUTO 00000KT 10SM CLR 24/23 A3007 RMK AO2 SLP183 T02390233 $


Station Type Date Time Source
KOCF Decoded METAR 2019/08/18 07:51 UTC NOAA

Station name not available
Aug 18, 2019 - 03:51 AM EDT / 2019.08.18 0751 UTC
Wind: Calm:0
Visibility: 10 mile(s):0
Sky conditions: clear
Temperature: 75.0 F (23.9 C)
Dew Point: 73.9 F (23.3 C)
Relative Humidity: 96%
Pressure (altimeter): 30.07 in. Hg (1018 hPa)
ob: KOCF 180751Z AUTO 00000KT 10SM CLR 24/23 A3007 RMK AO2 SLP183 T02390233
cycle: 8

Station Type Date Time Source
KOCF TAF UTC NOAA

Error!

Example: see airport list